Time;durP1;ratioP1;P1;durP2;ratioP2;P2;SDS_P1;SDS_P2;PMS_P1;PMS_P2;Temp;Humidity;BMP_temperature;BMP_pressure;BME280_temperature;BME280_humidity;BME280_pressure;Samples;Min_cycle;Max_cycle;Signal;HPM_P1;HPM_P2
2021/11/04 00:00:22;;;;;;;5.72;2.80;;;20.30;46.20;;;;;;4918702;29;20032;-62
2021/11/04 00:02:47;;;;;;;5.57;2.72;;;20.30;46.30;;;;;;4918563;29;20028;-61
2021/11/04 00:05:13;;;;;;;6.78;3.22;;;20.30;46.20;;;;;;4918579;29;20476;-62
2021/11/04 00:07:39;;;;;;;5.78;2.78;;;20.30;46.30;;;;;;4918692;29;20119;-62
2021/11/04 00:10:08;;;;;;;5.68;2.92;;;20.30;46.30;;;;;;4918505;29;20025;-61
2021/11/04 00:12:34;;;;;;;5.63;2.55;;;20.30;46.20;;;;;;4918390;29;20032;-62
2021/11/04 00:14:59;;;;;;;5.22;2.60;;;20.20;46.30;;;;;;4918446;29;20028;-62
2021/11/04 00:17:25;;;;;;;6.05;2.80;;;20.30;46.30;;;;;;4918382;29;20484;-62
2021/11/04 00:19:51;;;;;;;6.30;3.10;;;20.20;46.20;;;;;;4917181;29;20028;-62
2021/11/04 00:22:16;;;;;;;5.43;2.65;;;20.30;46.30;;;;;;4918451;29;20085;-62
2021/11/04 00:24:42;;;;;;;6.22;3.20;;;20.30;46.30;;;;;;4918556;29;20028;-62
2021/11/04 00:27:07;;;;;;;6.97;2.75;;;20.30;46.20;;;;;;4918281;29;20103;-62
2021/11/04 00:29:33;;;;;;;6.00;3.38;;;20.30;46.20;;;;;;4917969;29;20087;-62
2021/11/04 00:32:00;;;;;;;6.53;3.10;;;20.20;46.20;;;;;;4918044;29;20035;-62
2021/11/04 00:34:26;;;;;;;8.20;3.95;;;20.20;46.20;;;;;;4918139;29;20488;-62
2021/11/04 00:36:52;;;;;;;5.60;2.90;;;20.20;46.20;;;;;;4918048;29;20039;-62
2021/11/04 00:39:17;;;;;;;7.10;3.05;;;20.20;46.20;;;;;;4917992;29;20024;-62
2021/11/04 00:41:44;;;;;;;6.22;3.05;;;20.20;46.30;;;;;;4918012;29;20027;-62
2021/11/04 00:44:09;;;;;;;5.88;3.22;;;20.20;46.20;;;;;;4918187;29;20036;-62
2021/11/04 00:46:35;;;;;;;5.68;2.70;;;20.20;46.20;;;;;;4917761;29;20082;-62
2021/11/04 00:49:01;;;;;;;6.72;3.17;;;20.20;46.20;;;;;;4917873;29;20088;-62
2021/11/04 00:51:28;;;;;;;5.97;3.03;;;20.20;46.20;;;;;;4917793;29;20510;-61
2021/11/04 00:53:53;;;;;;;6.05;3.15;;;20.20;46.20;;;;;;4917839;29;20047;-61
2021/11/04 00:56:19;;;;;;;6.72;3.53;;;20.20;46.30;;;;;;4917718;29;20380;-61
2021/11/04 00:58:49;;;;;;;6.50;3.17;;;20.20;46.20;;;;;;4917850;29;20383;-61
2021/11/04 01:01:15;;;;;;;6.65;3.15;;;20.20;46.20;;;;;;4917484;29;20076;-62
2021/11/04 01:03:41;;;;;;;6.43;3.42;;;20.20;46.20;;;;;;4917504;29;20034;-61
2021/11/04 01:06:06;;;;;;;7.07;3.72;;;20.20;46.20;;;;;;4916726;29;20036;-61
2021/11/04 01:08:32;;;;;;;6.30;3.38;;;20.20;46.20;;;;;;4917413;29;20072;-61
2021/11/04 01:10:57;;;;;;;6.80;3.30;;;20.20;46.20;;;;;;4917437;29;20045;-61
2021/11/04 01:13:23;;;;;;;7.25;3.40;;;20.20;46.20;;;;;;4917250;29;20052;-61
2021/11/04 01:15:48;;;;;;;6.90;3.53;;;20.20;46.20;;;;;;4915952;29;20106;-61
2021/11/04 01:18:14;;;;;;;8.38;3.35;;;20.20;46.10;;;;;;4917223;29;20039;-61
2021/11/04 01:20:39;;;;;;;6.15;3.45;;;20.20;46.20;;;;;;4917236;29;20031;-61
2021/11/04 01:23:05;;;;;;;6.85;3.65;;;20.20;46.20;;;;;;4917184;29;20028;-61
2021/11/04 01:25:31;;;;;;;6.47;3.47;;;20.20;46.20;;;;;;4917169;29;20112;-61
2021/11/04 01:27:57;;;;;;;6.13;2.90;;;20.20;46.20;;;;;;4916942;29;20055;-62
2021/11/04 01:30:22;;;;;;;7.07;3.78;;;20.20;46.20;;;;;;4917026;29;20420;-62
2021/11/04 01:32:48;;;;;;;5.47;3.20;;;20.10;46.20;;;;;;4916948;29;20036;-62
2021/11/04 01:35:14;;;;;;;5.57;3.08;;;20.20;46.30;;;;;;4917294;29;20031;-66
2021/11/04 01:37:39;;;;;;;7.32;3.75;;;20.20;46.20;;;;;;4917246;29;20020;-62
2021/11/04 01:40:06;;;;;;;6.97;3.33;;;20.20;46.20;;;;;;4916961;29;20028;-62
2021/11/04 01:42:31;;;;;;;6.25;3.40;;;20.20;46.10;;;;;;4916894;29;20424;-62
2021/11/04 01:44:57;;;;;;;5.97;3.08;;;20.20;46.20;;;;;;4916859;29;20032;-62
2021/11/04 01:47:23;;;;;;;9.20;3.75;;;20.20;46.20;;;;;;4916932;29;20036;-62
2021/11/04 01:49:48;;;;;;;8.07;3.80;;;20.20;46.20;;;;;;4916877;29;20484;-62
2021/11/04 01:52:15;;;;;;;9.20;3.83;;;20.20;46.20;;;;;;4916783;29;20048;-62
2021/11/04 01:54:41;;;;;;;6.63;3.42;;;20.10;46.20;;;;;;4916838;29;20032;-62
2021/11/04 01:57:06;;;;;;;6.60;3.45;;;20.20;46.10;;;;;;4916776;29;20028;-61
2021/11/04 01:59:32;;;;;;;5.90;3.10;;;20.20;46.10;;;;;;4916692;29;20091;-62
2021/11/04 02:02:09;;;;;;;6.82;3.65;;;20.20;46.10;;;;;;4916714;29;20051;-62
2021/11/04 02:04:51;;;;;;;6.80;3.30;;;20.20;46.10;;;;;;4916740;29;20032;-62
2021/11/04 02:07:24;;;;;;;5.97;3.25;;;20.20;46.20;;;;;;4916747;29;20041;-62
2021/11/04 02:10:04;;;;;;;6.43;3.45;;;20.20;46.10;;;;;;4916951;29;20047;-61
2021/11/04 02:12:57;;;;;;;6.22;3.20;;;20.20;46.10;;;;;;4915398;29;20187;-61
2021/11/04 02:15:26;;;;;;;6.85;3.75;;;20.20;46.10;;;;;;4916613;29;20064;-62
2021/11/04 02:17:54;;;;;;;6.75;3.70;;;20.10;46.20;;;;;;4918756;29;20055;-62
2021/11/04 02:20:27;;;;;;;7.40;3.90;;;20.20;46.10;;;;;;4919037;29;20028;-61
2021/11/04 02:23:03;;;;;;;6.50;3.55;;;20.20;46.20;;;;;;4920417;29;20079;-62
2021/11/04 02:25:32;;;;;;;5.97;3.13;;;20.20;46.10;;;;;;4920357;29;20029;-62
2021/11/04 02:28:02;;;;;;;6.38;3.45;;;20.20;46.10;;;;;;4920081;29;20095;-62
2021/11/04 02:30:29;;;;;;;6.60;3.72;;;20.10;46.20;;;;;;4920272;29;20036;-62
2021/11/04 02:32:56;;;;;;;7.03;3.65;;;20.20;46.20;;;;;;4920030;29;20067;-62
2021/11/04 02:35:22;;;;;;;5.80;3.20;;;20.20;46.20;;;;;;4920127;29;20017;-62
2021/11/04 02:37:51;;;;;;;6.38;3.47;;;20.10;46.10;;;;;;4920026;29;20040;-62
2021/11/04 02:40:17;;;;;;;8.00;3.90;;;20.10;46.10;;;;;;4920027;29;20016;-62
2021/11/04 02:42:43;;;;;;;6.43;3.33;;;20.10;46.10;;;;;;4920010;29;20039;-62
2021/11/04 02:45:10;;;;;;;6.70;3.50;;;20.10;46.10;;;;;;4920282;29;20115;-62
2021/11/04 02:47:37;;;;;;;6.93;3.47;;;20.20;46.10;;;;;;4919871;29;20429;-62
2021/11/04 02:50:04;;;;;;;7.60;3.70;;;20.10;46.10;;;;;;4919848;29;20024;-62
2021/11/04 02:52:30;;;;;;;7.18;3.97;;;20.20;46.10;;;;;;4919785;29;20420;-62
2021/11/04 02:54:59;;;;;;;6.25;3.63;;;20.10;46.10;;;;;;4919821;29;20084;-62
2021/11/04 02:57:25;;;;;;;7.25;3.95;;;20.10;46.10;;;;;;4919748;29;20028;-62
2021/11/04 02:59:51;;;;;;;6.35;3.33;;;20.10;46.10;;;;;;4919708;29;20503;-62
2021/11/04 03:02:16;;;;;;;8.68;3.95;;;20.20;46.10;;;;;;4919902;29;20468;-62
2021/11/04 03:04:42;;;;;;;7.57;3.92;;;20.10;46.10;;;;;;4919687;29;20508;-61
2021/11/04 03:07:08;;;;;;;7.10;3.92;;;20.20;46.10;;;;;;4919614;29;20392;-62
2021/11/04 03:09:33;;;;;;;6.22;3.40;;;20.10;46.10;;;;;;4919614;29;20437;-62
2021/11/04 03:11:59;;;;;;;7.28;3.45;;;20.10;46.10;;;;;;4919653;29;20432;-62
2021/11/04 03:14:25;;;;;;;8.23;3.75;;;20.20;46.10;;;;;;4918083;29;20036;-62
2021/11/04 03:16:55;;;;;;;7.32;3.90;;;20.10;46.10;;;;;;4919513;29;20024;-62
2021/11/04 03:19:22;;;;;;;7.38;3.53;;;20.10;46.10;;;;;;4919369;29;20163;-62
2021/11/04 03:21:51;;;;;;;7.18;3.70;;;20.10;46.10;;;;;;4919313;29;20028;-62
2021/11/04 03:24:18;;;;;;;7.25;3.65;;;20.10;46.10;;;;;;4919525;29;20119;-62
2021/11/04 03:26:52;;;;;;;7.78;4.18;;;20.10;46.10;;;;;;4918225;29;20054;-61
2021/11/04 03:29:19;;;;;;;6.55;3.63;;;20.10;46.10;;;;;;4918166;29;20088;-62
2021/11/04 03:31:46;;;;;;;7.43;3.80;;;20.10;46.10;;;;;;4917815;29;20032;-62
2021/11/04 03:34:13;;;;;;;8.10;4.25;;;20.10;46.10;;;;;;4919066;29;20496;-62
2021/11/04 03:36:41;;;;;;;6.78;3.67;;;20.10;46.10;;;;;;4919115;29;20031;-62
2021/11/04 03:39:07;;;;;;;8.55;4.05;;;20.10;46.10;;;;;;4919116;29;20028;-62
2021/11/04 03:41:35;;;;;;;7.47;3.95;;;20.10;46.10;;;;;;4918955;29;20543;-62
2021/11/04 03:44:01;;;;;;;7.60;3.70;;;20.10;46.10;;;;;;4919194;29;20111;-62
2021/11/04 03:46:28;;;;;;;7.80;4.22;;;20.10;46.10;;;;;;4918900;29;20029;-62
2021/11/04 03:48:54;;;;;;;5.90;3.10;;;20.10;46.10;;;;;;4918849;29;20551;-62
2021/11/04 03:51:21;;;;;;;7.45;3.50;;;20.10;46.10;;;;;;4918817;29;20040;-62
2021/11/04 03:53:48;;;;;;;7.65;3.80;;;20.10;46.10;;;;;;4918694;29;20392;-62
2021/11/04 03:56:15;;;;;;;7.30;4.15;;;20.10;46.10;;;;;;4918742;29;20024;-62
2021/11/04 03:58:41;;;;;;;7.75;3.72;;;20.10;46.00;;;;;;4918771;29;20036;-62
2021/11/04 04:01:08;;;;;;;6.88;3.97;;;20.10;46.10;;;;;;4918674;29;20028;-62
2021/11/04 04:03:36;;;;;;;7.28;3.58;;;20.10;46.10;;;;;;4918727;29;20040;-62
2021/11/04 04:06:04;;;;;;;7.57;4.47;;;20.10;46.10;;;;;;4918758;29;20031;-62
2021/11/04 04:08:30;;;;;;;7.22;3.92;;;20.10;46.10;;;;;;4918669;29;20507;-62
2021/11/04 04:10:56;;;;;;;8.20;4.35;;;20.10;46.10;;;;;;4918647;29;20491;-62
2021/11/04 04:13:22;;;;;;;7.43;3.63;;;20.00;46.10;;;;;;4918440;29;20555;-62
2021/11/04 04:15:48;;;;;;;7.43;3.65;;;20.10;46.10;;;;;;4918544;29;20169;-62
2021/11/04 04:18:14;;;;;;;7.82;4.00;;;20.10;46.00;;;;;;4918336;29;20380;-62
2021/11/04 04:20:39;;;;;;;7.30;4.00;;;20.10;46.10;;;;;;4918296;29;20020;-62
2021/11/04 04:23:05;;;;;;;7.40;3.92;;;20.10;46.00;;;;;;4918326;29;20391;-62
2021/11/04 04:25:30;;;;;;;7.18;4.25;;;20.10;46.00;;;;;;4918152;29;20489;-62
2021/11/04 04:27:57;;;;;;;7.63;3.88;;;20.10;46.00;;;;;;4917990;29;20147;-62
2021/11/04 04:30:23;;;;;;;6.78;3.55;;;20.10;46.00;;;;;;4916869;29;20391;-62
2021/11/04 04:32:49;;;;;;;7.82;3.92;;;20.10;46.10;;;;;;4918080;29;20040;-62
2021/11/04 04:35:15;;;;;;;7.20;3.75;;;20.00;46.00;;;;;;4918023;29;20379;-62
2021/11/04 04:37:40;;;;;;;6.90;3.70;;;20.10;46.10;;;;;;4918271;29;20506;-62
2021/11/04 04:40:07;;;;;;;6.80;3.63;;;20.10;46.00;;;;;;4917817;29;20020;-62
2021/11/04 04:42:32;;;;;;;7.47;3.83;;;20.10;46.00;;;;;;4917997;29;20080;-62
2021/11/04 04:44:58;;;;;;;7.05;3.83;;;20.00;46.10;;;;;;4917832;29;20028;-62
2021/11/04 04:47:23;;;;;;;7.45;4.00;;;20.10;46.10;;;;;;4917841;29;20107;-62
2021/11/04 04:49:49;;;;;;;6.43;3.70;;;20.00;46.10;;;;;;4917842;29;20476;-62
2021/11/04 04:52:14;;;;;;;7.35;4.00;;;20.00;46.10;;;;;;4917892;29;20357;-62
2021/11/04 04:54:40;;;;;;;7.05;3.58;;;20.00;46.10;;;;;;4917876;29;20052;-62
2021/11/04 04:57:06;;;;;;;7.53;3.75;;;20.00;46.00;;;;;;4917605;29;20549;-62
2021/11/04 04:59:31;;;;;;;7.32;3.63;;;20.00;46.00;;;;;;4917635;29;20063;-62
2021/11/04 05:01:57;;;;;;;7.93;4.03;;;20.10;46.00;;;;;;4917567;29;20125;-62
2021/11/04 05:04:22;;;;;;;6.55;3.47;;;20.00;46.00;;;;;;4917440;29;20035;-61
2021/11/04 05:06:48;;;;;;;7.50;3.78;;;20.00;46.00;;;;;;4917530;29;20080;-62
2021/11/04 05:09:13;;;;;;;7.05;4.13;;;20.10;46.00;;;;;;4917391;29;20032;-62
2021/11/04 05:11:39;;;;;;;6.38;3.28;;;20.00;46.00;;;;;;4917402;29;20075;-62
2021/11/04 05:14:05;;;;;;;8.25;4.70;;;20.10;46.00;;;;;;4917304;29;20032;-62
2021/11/04 05:16:31;;;;;;;6.72;3.55;;;20.00;46.00;;;;;;4917283;29;20024;-62
2021/11/04 05:18:56;;;;;;;6.50;3.80;;;20.10;46.00;;;;;;4917266;29;20032;-62
2021/11/04 05:21:22;;;;;;;5.95;3.22;;;20.10;46.00;;;;;;4917482;29;20384;-62
2021/11/04 05:23:47;;;;;;;7.05;3.88;;;20.10;46.00;;;;;;4917356;29;20024;-62
2021/11/04 05:26:13;;;;;;;7.45;3.63;;;20.10;46.00;;;;;;4917152;29;20480;-62
2021/11/04 05:28:38;;;;;;;6.60;3.67;;;20.20;45.90;;;;;;4916846;29;20058;-62
2021/11/04 05:31:04;;;;;;;6.30;3.42;;;20.20;45.80;;;;;;4917103;29;20035;-62
2021/11/04 05:33:30;;;;;;;6.25;3.65;;;20.20;45.80;;;;;;4916967;29;20032;-62
2021/11/04 05:35:55;;;;;;;6.90;3.40;;;20.20;45.80;;;;;;4916939;29;20428;-62
2021/11/04 05:38:21;;;;;;;7.43;3.13;;;20.20;45.80;;;;;;4916913;29;20392;-62
2021/11/04 05:40:46;;;;;;;7.30;3.95;;;20.20;45.80;;;;;;4916861;29;20024;-62
2021/11/04 05:43:12;;;;;;;6.93;3.78;;;20.20;45.90;;;;;;4916933;29;20369;-62
2021/11/04 05:45:37;;;;;;;7.28;3.70;;;20.20;45.80;;;;;;4916785;29;20047;-62
2021/11/04 05:48:03;;;;;;;6.78;3.70;;;20.20;45.80;;;;;;4916880;29;20038;-62
2021/11/04 05:50:29;;;;;;;6.88;4.07;;;20.20;45.80;;;;;;4916981;29;20024;-62
2021/11/04 05:52:54;;;;;;;6.90;3.50;;;20.20;45.80;;;;;;4916197;29;20433;-62
2021/11/04 05:55:20;;;;;;;7.22;3.92;;;20.30;45.80;;;;;;4916802;29;20032;-62
2021/11/04 05:57:46;;;;;;;7.57;3.90;;;20.20;45.80;;;;;;4916737;29;20476;-62
2021/11/04 06:00:12;;;;;;;7.25;3.72;;;20.20;45.80;;;;;;4916740;29;20099;-62
2021/11/04 06:02:37;;;;;;;7.10;3.70;;;20.30;45.80;;;;;;4916656;29;20388;-62
2021/11/04 06:05:03;;;;;;;7.20;4.18;;;20.30;45.70;;;;;;4916709;29;20380;-62
2021/11/04 06:07:29;;;;;;;6.30;3.42;;;20.30;45.80;;;;;;4916592;29;20039;-62
2021/11/04 06:09:55;;;;;;;6.22;3.33;;;20.30;45.80;;;;;;4916614;29;20021;-62
2021/11/04 06:12:20;;;;;;;7.03;3.60;;;20.30;45.80;;;;;;4916606;29;20107;-62
2021/11/04 06:14:46;;;;;;;7.03;3.70;;;20.30;45.80;;;;;;4916803;29;20400;-62
2021/11/04 06:17:11;;;;;;;6.68;3.53;;;20.30;45.70;;;;;;4916591;29;20031;-62
2021/11/04 06:19:37;;;;;;;7.00;3.63;;;20.30;45.80;;;;;;4916685;29;20535;-62
2021/11/04 06:22:03;;;;;;;6.65;3.97;;;20.30;45.80;;;;;;4916484;29;20059;-62
2021/11/04 06:24:28;;;;;;;7.47;3.90;;;20.30;45.80;;;;;;4916609;29;20035;-62
2021/11/04 06:26:54;;;;;;;7.50;3.70;;;20.20;45.80;;;;;;4916514;29;20412;-62
2021/11/04 06:29:19;;;;;;;7.13;3.92;;;20.30;45.80;;;;;;4916409;29;20051;-62
2021/11/04 06:31:45;;;;;;;8.25;3.83;;;20.30;45.80;;;;;;4916377;29;20120;-62
2021/11/04 06:34:10;;;;;;;6.35;3.50;;;20.30;45.80;;;;;;4916405;29;20115;-62
2021/11/04 06:36:36;;;;;;;7.13;3.60;;;20.30;45.80;;;;;;4916360;29;20103;-61
2021/11/04 06:39:03;;;;;;;6.22;3.45;;;20.30;45.80;;;;;;4916431;29;20028;-62
2021/11/04 06:41:28;;;;;;;8.45;4.35;;;20.30;45.80;;;;;;4916376;29;20115;-62
2021/11/04 06:43:54;;;;;;;6.38;3.75;;;20.30;45.80;;;;;;4916388;29;20028;-62
2021/11/04 06:46:24;;;;;;;7.25;3.75;;;20.20;45.80;;;;;;4916328;29;20037;-62
2021/11/04 06:49:04;;;;;;;7.63;4.15;;;20.20;45.80;;;;;;4916337;29;20043;-62
2021/11/04 06:51:32;;;;;;;7.05;3.65;;;20.30;45.80;;;;;;4916350;29;20035;-63
2021/11/04 06:54:02;;;;;;;6.72;3.45;;;20.20;45.80;;;;;;4916188;29;20041;-62
2021/11/04 06:56:38;;;;;;;6.55;3.28;;;20.20;45.80;;;;;;4916207;29;20107;-62
2021/11/04 06:59:05;;;;;;;7.07;3.75;;;20.20;45.80;;;;;;4916214;29;20024;-62
2021/11/04 07:01:33;;;;;;;6.47;3.20;;;20.20;45.90;;;;;;4916169;29;20052;-62
2021/11/04 07:04:09;;;;;;;7.65;3.53;;;20.20;45.90;;;;;;4917132;29;20119;-62
2021/11/04 07:06:43;;;;;;;6.57;3.42;;;20.30;45.90;;;;;;4919658;29;20028;-62
2021/11/04 07:09:09;;;;;;;;;;;20.20;45.90;;;;;;4919995;29;20028;-62
2021/11/04 07:11:34;;;;;;;6.97;3.38;;;20.20;45.80;;;;;;4919540;29;19914;-62
2021/11/04 07:14:01;;;;;;;7.05;3.50;;;20.20;45.90;;;;;;4919662;29;20036;-62
2021/11/04 07:16:27;;;;;;;6.75;3.60;;;20.20;45.90;;;;;;4919362;29;20028;-62
2021/11/04 07:18:55;;;;;;;7.38;3.35;;;20.20;45.80;;;;;;4919434;29;20091;-62
2021/11/04 07:21:33;;;;;;;5.88;3.40;;;20.20;45.80;;;;;;4919307;29;20472;-62
2021/11/04 07:24:00;;;;;;;6.45;3.40;;;20.20;45.80;;;;;;4918059;29;20088;-62
2021/11/04 07:26:34;;;;;;;6.22;3.45;;;20.20;45.80;;;;;;4919274;29;20028;-61
2021/11/04 07:29:00;;;;;;;5.82;3.13;;;20.20;45.80;;;;;;4919157;29;20044;-62
2021/11/04 07:31:28;;;;;;;6.97;3.33;;;20.20;45.80;;;;;;4918916;29;20032;-62
2021/11/04 07:33:55;;;;;;;6.22;3.13;;;20.30;45.80;;;;;;4919356;29;20040;-62
2021/11/04 07:36:20;;;;;;;7.32;3.58;;;20.20;45.80;;;;;;4919074;29;20035;-62
2021/11/04 07:38:47;;;;;;;6.63;3.75;;;20.30;45.80;;;;;;4919297;29;20024;-62
2021/11/04 07:41:14;;;;;;;6.15;3.25;;;20.20;45.80;;;;;;4918997;29;20047;-62
2021/11/04 07:43:40;;;;;;;6.43;3.58;;;20.30;45.80;;;;;;4918990;29;20432;-62
2021/11/04 07:46:06;;;;;;;6.38;3.38;;;20.30;45.80;;;;;;4919122;29;20020;-62
2021/11/04 07:48:32;;;;;;;6.47;3.20;;;20.20;45.80;;;;;;4918989;29;20495;-62
2021/11/04 07:50:58;;;;;;;6.68;3.33;;;20.20;45.80;;;;;;4918897;29;20035;-62
2021/11/04 07:53:24;;;;;;;6.00;3.00;;;20.20;45.80;;;;;;4918678;29;20036;-62
2021/11/04 07:55:52;;;;;;;6.97;3.50;;;20.30;45.80;;;;;;4918701;29;20028;-62
2021/11/04 07:58:17;;;;;;;6.25;3.45;;;20.20;45.70;;;;;;4918960;29;20036;-62
2021/11/04 08:00:43;;;;;;;6.35;3.22;;;20.30;45.70;;;;;;4917417;29;20031;-62
2021/11/04 08:03:09;;;;;;;7.07;3.92;;;20.30;45.70;;;;;;4918841;29;20032;-62
2021/11/04 08:05:35;;;;;;;6.22;3.38;;;20.30;45.70;;;;;;4918782;29;20107;-62
2021/11/04 08:08:03;;;;;;;6.10;3.00;;;20.30;45.70;;;;;;4918423;29;20028;-62
2021/11/04 08:10:28;;;;;;;6.10;3.25;;;20.30;45.70;;;;;;4917285;29;20095;-62
2021/11/04 08:12:54;;;;;;;7.53;3.50;;;20.30;45.80;;;;;;4916366;29;20063;-61
2021/11/04 08:15:19;;;;;;;6.43;3.13;;;20.30;45.80;;;;;;4916435;29;20111;-61
2021/11/04 08:17:45;;;;;;;8.02;3.92;;;20.30;45.80;;;;;;4916628;29;20477;-61
2021/11/04 08:20:11;;;;;;;7.10;3.70;;;20.30;45.50;;;;;;4916354;29;20038;-61
2021/11/04 08:22:37;;;;;;;4.43;2.22;;;20.30;45.60;;;;;;4916975;29;20473;-66
2021/11/04 08:25:05;;;;;;;6.47;3.33;;;20.30;45.70;;;;;;4917246;29;20430;-65
2021/11/04 08:27:32;;;;;;;6.90;3.90;;;20.30;45.40;;;;;;4916104;29;20040;-65
2021/11/04 08:29:58;;;;;;;6.70;3.53;;;20.30;45.50;;;;;;4916489;29;20037;-64
2021/11/04 08:32:23;;;;;;;7.05;3.72;;;20.30;45.60;;;;;;4916857;29;20051;-64
2021/11/04 08:34:49;;;;;;;6.43;3.40;;;20.30;45.70;;;;;;4916782;29;20116;-64
2021/11/04 08:37:14;;;;;;;6.63;3.45;;;20.30;45.70;;;;;;4912605;29;20036;-63
2021/11/04 08:39:40;;;;;;;6.85;3.35;;;20.30;45.70;;;;;;4897844;29;20111;-64
2021/11/04 08:42:07;;;;;;;7.32;3.63;;;20.30;45.70;;;;;;4915176;29;20028;-65
2021/11/04 08:44:33;;;;;;;7.35;3.95;;;20.30;45.80;;;;;;4914619;29;20555;-66
2021/11/04 08:46:59;;;;;;;7.78;3.75;;;20.30;45.80;;;;;;4917001;29;20044;-66
2021/11/04 08:49:25;;;;;;;7.47;3.92;;;20.30;45.80;;;;;;4917179;29;20040;-65
2021/11/04 08:51:54;;;;;;;6.47;3.22;;;20.40;45.90;;;;;;4917070;29;20024;-65
2021/11/04 08:54:22;;;;;;;6.80;3.30;;;20.40;45.90;;;;;;4915943;29;20055;-64
2021/11/04 08:56:48;;;;;;;5.97;2.90;;;20.40;45.80;;;;;;4916932;29;20031;-64
2021/11/04 08:59:13;;;;;;;6.90;3.15;;;20.40;45.90;;;;;;4917061;29;20032;-63
2021/11/04 09:01:41;;;;;;;6.35;2.78;;;20.40;45.80;;;;;;4916492;29;20031;-64
2021/11/04 09:04:06;;;;;;;6.50;3.17;;;20.40;45.90;;;;;;4915130;29;20491;-63
2021/11/04 09:06:32;;;;;;;7.07;3.88;;;20.40;45.80;;;;;;4915127;29;20028;-64
2021/11/04 09:09:01;;;;;;;6.63;3.55;;;20.40;45.90;;;;;;4916533;29;20107;-64
2021/11/04 09:11:27;;;;;;;6.78;3.28;;;20.40;45.90;;;;;;4916583;29;20024;-65
2021/11/04 09:13:52;;;;;;;7.70;3.47;;;20.40;46.00;;;;;;4916041;29;20055;-64
2021/11/04 09:16:18;;;;;;;5.95;3.05;;;20.40;45.90;;;;;;4916074;29;20028;-64
2021/11/04 09:18:44;;;;;;;6.97;3.38;;;20.40;45.90;;;;;;4916242;29;20417;-64
2021/11/04 09:21:09;;;;;;;6.65;3.17;;;20.40;46.00;;;;;;4916443;29;20103;-64
2021/11/04 09:23:35;;;;;;;6.80;3.33;;;20.40;46.00;;;;;;4915644;29;20036;-64
2021/11/04 09:26:00;;;;;;;7.25;3.38;;;20.50;45.90;;;;;;4915763;29;20060;-65
2021/11/04 09:28:26;;;;;;;6.72;3.60;;;20.40;45.90;;;;;;4915813;29;20131;-65
2021/11/04 09:30:51;;;;;;;7.97;3.55;;;20.50;45.80;;;;;;4916474;29;20127;-65
2021/11/04 09:33:17;;;;;;;6.60;3.22;;;20.50;45.90;;;;;;4915331;29;20460;-66
2021/11/04 09:35:42;;;;;;;6.60;3.75;;;20.50;45.90;;;;;;4915584;29;20036;-65
2021/11/04 09:38:08;;;;;;;6.25;2.97;;;20.50;45.90;;;;;;4916212;29;20112;-64
2021/11/04 09:40:34;;;;;;;8.52;3.97;;;20.50;45.90;;;;;;4914697;29;20428;-63
2021/11/04 09:43:00;;;;;;;6.93;3.50;;;20.50;45.80;;;;;;4916098;29;20046;-66
2021/11/04 09:45:27;;;;;;;8.32;3.53;;;20.50;45.80;;;;;;4916026;29;20036;-65
2021/11/04 09:47:53;;;;;;;8.13;4.47;;;20.50;45.80;;;;;;4914430;29;20036;-65
2021/11/04 09:50:20;;;;;;;9.23;3.78;;;20.40;45.90;;;;;;4915390;29;20124;-65
2021/11/04 09:52:48;;;;;;;6.28;3.13;;;20.40;46.00;;;;;;4915108;29;20059;-65
2021/11/04 09:55:20;;;;;;;6.55;3.15;;;20.50;46.00;;;;;;4915306;29;20032;-65
2021/11/04 09:57:47;;;;;;;8.93;3.65;;;20.50;45.90;;;;;;4915432;29;20028;-65
2021/11/04 10:00:13;;;;;;;6.07;3.13;;;20.50;46.00;;;;;;4916570;29;20024;-65
2021/11/04 10:02:41;;;;;;;7.07;3.28;;;20.50;46.00;;;;;;4916093;29;20104;-65
2021/11/04 10:05:11;;;;;;;7.30;3.90;;;20.40;46.00;;;;;;4915125;29;20040;-65
2021/11/04 10:07:48;;;;;;;6.78;3.40;;;20.40;46.00;;;;;;4916404;29;20484;-65
2021/11/04 10:10:15;;;;;;;7.10;3.47;;;20.40;46.00;;;;;;4916345;29;20032;-65
2021/11/04 10:13:03;;;;;;;7.15;3.17;;;20.50;46.00;;;;;;4916323;29;20115;-65
2021/11/04 10:15:31;;;;;;;6.95;3.40;;;20.40;46.00;;;;;;4901847;29;20044;-65
2021/11/04 10:18:20;;;;;;;6.78;3.55;;;20.40;46.00;;;;;;4916421;29;20036;-65
2021/11/04 10:21:00;;;;;;;8.05;3.35;;;20.50;46.00;;;;;;4915532;29;20087;-65
2021/11/04 10:23:34;;;;;;;7.30;3.47;;;20.40;46.00;;;;;;4915006;29;20508;-65
2021/11/04 10:26:13;;;;;;;6.90;3.10;;;20.40;46.00;;;;;;4916724;29;20032;-65
2021/11/04 10:28:43;;;;;;;6.85;3.65;;;20.50;46.00;;;;;;4916226;29;20052;-65
2021/11/04 10:31:12;;;;;;;7.70;3.50;;;20.50;46.00;;;;;;4915081;29;20051;-65
2021/11/04 10:33:41;;;;;;;6.93;3.38;;;20.40;46.00;;;;;;4916385;29;20043;-65
2021/11/04 10:36:18;;;;;;;7.55;3.58;;;20.50;45.90;;;;;;4916106;29;20068;-65
2021/11/04 10:38:53;;;;;;;6.53;3.60;;;20.40;45.90;;;;;;4918102;29;20024;-65
2021/11/04 10:41:24;;;;;;;6.93;3.53;;;20.50;45.90;;;;;;4920548;29;20036;-65
2021/11/04 10:43:53;;;;;;;7.68;3.38;;;20.50;45.90;;;;;;4919790;29;20401;-65
2021/11/04 10:46:19;;;;;;;6.47;3.25;;;20.50;45.90;;;;;;4919697;29;20552;-65
2021/11/04 10:48:47;;;;;;;6.82;3.30;;;20.50;45.90;;;;;;4918553;29;20024;-65
2021/11/04 10:51:20;;;;;;;6.30;3.47;;;20.40;45.90;;;;;;4919976;29;20118;-65
2021/11/04 10:54:01;;;;;;;6.30;3.08;;;20.50;45.90;;;;;;4919831;29;20115;-65
2021/11/04 10:56:28;;;;;;;7.15;3.67;;;20.50;46.00;;;;;;4919750;29;20028;-65
2021/11/04 10:58:56;;;;;;;7.40;3.90;;;20.40;45.90;;;;;;4919873;29;20028;-65
2021/11/04 11:01:43;;;;;;;6.38;3.63;;;20.50;45.90;;;;;;4919374;29;20028;-64
2021/11/04 11:04:14;;;;;;;7.47;3.60;;;20.50;45.90;;;;;;4919324;29;20105;-65
2021/11/04 11:06:43;;;;;;;5.57;3.00;;;20.50;45.80;;;;;;4918659;29;20027;-65
2021/11/04 11:09:14;;;;;;;7.40;3.53;;;20.50;45.80;;;;;;4918810;29;20087;-65
2021/11/04 11:11:42;;;;;;;6.63;3.47;;;20.50;45.80;;;;;;4918215;29;20024;-65
2021/11/04 11:14:08;;;;;;;7.13;3.38;;;20.50;45.80;;;;;;4918621;29;20119;-65
2021/11/04 11:16:42;;;;;;;6.60;2.88;;;20.50;45.90;;;;;;4918270;29;20024;-65
2021/11/04 11:19:08;;;;;;;6.88;3.53;;;20.50;45.90;;;;;;4917465;29;20042;-66
2021/11/04 11:21:40;;;;;;;7.03;3.45;;;20.50;45.90;;;;;;4918205;29;20099;-64
2021/11/04 11:24:07;;;;;;;7.05;3.70;;;20.50;45.90;;;;;;4918348;29;20028;-65
2021/11/04 11:26:33;;;;;;;7.68;3.90;;;20.50;46.00;;;;;;4918211;29;20051;-65
2021/11/04 11:29:00;;;;;;;7.68;3.47;;;20.50;45.90;;;;;;4918270;29;20049;-65
2021/11/04 11:31:27;;;;;;;9.32;3.70;;;20.50;46.00;;;;;;4918664;29;20269;-64
2021/11/04 11:33:52;;;;;;;6.65;3.47;;;20.50;46.00;;;;;;4917703;29;20141;-68
2021/11/04 11:36:20;;;;;;;7.28;3.95;;;20.50;46.00;;;;;;4916622;29;20574;-67
2021/11/04 11:38:58;;;;;;;7.13;3.75;;;20.50;46.00;;;;;;4918276;29;20043;-62
2021/11/04 11:41:53;;;;;;;10.73;6.03;;;20.50;46.00;;;;;;4918365;29;20116;-66
2021/11/04 11:44:34;;;;;;;6.70;3.70;;;20.50;46.00;;;;;;4868008;29;20074;-66
2021/11/04 11:47:04;;;;;;;7.70;3.60;;;20.50;46.10;;;;;;4918608;29;20059;-66
2021/11/04 11:49:40;;;;;;;7.30;3.85;;;20.50;46.10;;;;;;4918081;29;20092;-66
2021/11/04 11:52:08;;;;;;;12.82;4.60;;;20.50;46.10;;;;;;4918650;29;20024;-66
2021/11/04 11:54:49;;;;;;;7.07;3.60;;;20.40;46.10;;;;;;4918784;29;20048;-66
2021/11/04 11:57:15;;;;;;;7.57;4.10;;;20.50;46.10;;;;;;4918603;29;20024;-66
2021/11/04 11:59:54;;;;;;;8.13;4.15;;;20.50;46.10;;;;;;4918354;29;20426;-66
2021/11/04 12:02:53;;;;;;;7.68;3.80;;;20.40;46.10;;;;;;4916757;29;20032;-66
2021/11/04 12:05:22;;;;;;;6.53;3.35;;;20.50;46.00;;;;;;4916531;29;20035;-66
2021/11/04 12:08:09;;;;;;;7.28;3.90;;;20.50;46.00;;;;;;4916335;29;20036;-66
2021/11/04 12:10:44;;;;;;;6.90;3.67;;;20.50;46.00;;;;;;4916977;29;20555;-66
2021/11/04 12:13:31;;;;;;;7.22;4.00;;;20.50;46.00;;;;;;4917200;29;20048;-66
2021/11/04 12:16:19;;;;;;;7.95;4.07;;;20.50;46.00;;;;;;4917738;29;20059;-66
2021/11/04 12:18:55;;;;;;;7.10;3.28;;;20.50;46.00;;;;;;4918254;29;20043;-66
2021/11/04 12:21:26;;;;;;;6.47;3.75;;;20.50;46.00;;;;;;4916439;29;20484;-66
2021/11/04 12:23:54;;;;;;;7.18;3.55;;;20.50;46.00;;;;;;4913577;29;20043;-66
2021/11/04 12:26:42;;;;;;;8.68;3.60;;;20.50;46.10;;;;;;4917234;29;20043;-66
2021/11/04 12:29:10;;;;;;;6.82;3.85;;;20.50;46.00;;;;;;4915818;29;20127;-66
2021/11/04 12:31:41;;;;;;;7.07;3.70;;;20.50;46.00;;;;;;4917352;29;20024;-66
2021/11/04 12:34:07;;;;;;;6.70;3.42;;;20.50;46.00;;;;;;4916925;29;20036;-66
2021/11/04 12:36:41;;;;;;;7.32;3.38;;;20.50;46.00;;;;;;4917232;29;20469;-66
2021/11/04 12:39:18;;;;;;;6.78;3.65;;;20.50;46.00;;;;;;4917018;29;20032;-67
2021/11/04 12:41:48;;;;;;;7.57;3.50;;;20.50;45.90;;;;;;4917043;29;20028;-66
2021/11/04 12:44:14;;;;;;;9.05;3.78;;;20.50;45.90;;;;;;4917330;29;20032;-66
2021/11/04 12:46:47;;;;;;;8.02;3.55;;;20.60;45.90;;;;;;4916360;29;20043;-66
2021/11/04 12:49:13;;;;;;;6.18;3.53;;;20.60;46.00;;;;;;4917219;29;20083;-66
2021/11/04 12:51:50;;;;;;;7.00;3.85;;;20.60;46.00;;;;;;4916678;29;20488;-67